sensor_id;sensor_type;location;lat;lon;timestamp;P1;durP1;ratioP1;P2;durP2;ratioP2
48667;SDS011;34453;52.198;5.004;2022-07-25T00:02:19;3.97;;;2.92;;
48667;SDS011;34453;52.198;5.004;2022-07-25T00:04:45;5.10;;;3.38;;
48667;SDS011;34453;52.198;5.004;2022-07-25T00:07:11;3.05;;;2.85;;
48667;SDS011;34453;52.198;5.004;2022-07-25T00:09:36;4.28;;;3.10;;
48667;SDS011;34453;52.198;5.004;2022-07-25T00:12:02;2.97;;;2.88;;
48667;SDS011;34453;52.198;5.004;2022-07-25T00:14:27;3.58;;;3.38;;
48667;SDS011;34453;52.198;5.004;2022-07-25T00:16:53;3.60;;;3.30;;
48667;SDS011;34453;52.198;5.004;2022-07-25T00:19:18;4.78;;;4.55;;
48667;SDS011;34453;52.198;5.004;2022-07-25T00:21:44;5.03;;;4.72;;
48667;SDS011;34453;52.198;5.004;2022-07-25T00:24:09;5.05;;;4.65;;
48667;SDS011;34453;52.198;5.004;2022-07-25T00:26:35;4.95;;;4.65;;
48667;SDS011;34453;52.198;5.004;2022-07-25T00:29:00;5.57;;;5.18;;
48667;SDS011;34453;52.198;5.004;2022-07-25T00:31:26;5.28;;;4.97;;
48667;SDS011;34453;52.198;5.004;2022-07-25T00:33:51;5.82;;;5.22;;
48667;SDS011;34453;52.198;5.004;2022-07-25T00:36:17;5.15;;;4.95;;
48667;SDS011;34453;52.198;5.004;2022-07-25T00:38:42;5.85;;;4.90;;
48667;SDS011;34453;52.198;5.004;2022-07-25T00:41:08;5.93;;;5.53;;
48667;SDS011;34453;52.198;5.004;2022-07-25T00:43:33;7.20;;;5.28;;
48667;SDS011;34453;52.198;5.004;2022-07-25T00:45:59;7.20;;;5.63;;
48667;SDS011;34453;52.198;5.004;2022-07-25T00:48:25;7.75;;;5.85;;
48667;SDS011;34453;52.198;5.004;2022-07-25T00:50:51;5.97;;;5.57;;
48667;SDS011;34453;52.198;5.004;2022-07-25T00:53:16;6.45;;;5.40;;
48667;SDS011;34453;52.198;5.004;2022-07-25T00:55:42;5.50;;;5.10;;
48667;SDS011;34453;52.198;5.004;2022-07-25T00:58:08;5.63;;;5.13;;
48667;SDS011;34453;52.198;5.004;2022-07-25T01:00:33;5.97;;;5.57;;
48667;SDS011;34453;52.198;5.004;2022-07-25T01:02:59;5.75;;;5.15;;
48667;SDS011;34453;52.198;5.004;2022-07-25T01:05:24;4.75;;;4.53;;
48667;SDS011;34453;52.198;5.004;2022-07-25T01:07:50;5.00;;;4.70;;
48667;SDS011;34453;52.198;5.004;2022-07-25T01:10:16;5.43;;;4.95;;
48667;SDS011;34453;52.198;5.004;2022-07-25T01:12:48;6.00;;;5.05;;
48667;SDS011;34453;52.198;5.004;2022-07-25T01:15:19;4.35;;;4.15;;
48667;SDS011;34453;52.198;5.004;2022-07-25T01:17:46;4.82;;;4.53;;
48667;SDS011;34453;52.198;5.004;2022-07-25T01:20:13;5.15;;;4.30;;
48667;SDS011;34453;52.198;5.004;2022-07-25T01:22:40;5.00;;;4.68;;
48667;SDS011;34453;52.198;5.004;2022-07-25T01:25:05;5.35;;;4.85;;
48667;SDS011;34453;52.198;5.004;2022-07-25T01:27:31;4.88;;;4.53;;
48667;SDS011;34453;52.198;5.004;2022-07-25T01:29:56;5.38;;;4.97;;
48667;SDS011;34453;52.198;5.004;2022-07-25T01:32:21;5.85;;;5.32;;
48667;SDS011;34453;52.198;5.004;2022-07-25T01:34:47;4.28;;;4.07;;
48667;SDS011;34453;52.198;5.004;2022-07-25T01:37:12;5.95;;;5.13;;
48667;SDS011;34453;52.198;5.004;2022-07-25T01:39:38;6.10;;;5.50;;
48667;SDS011;34453;52.198;5.004;2022-07-25T01:42:03;5.82;;;5.53;;
48667;SDS011;34453;52.198;5.004;2022-07-25T01:44:29;6.03;;;5.60;;
48667;SDS011;34453;52.198;5.004;2022-07-25T01:46:54;5.45;;;5.15;;
48667;SDS011;34453;52.198;5.004;2022-07-25T01:49:20;6.10;;;5.45;;
48667;SDS011;34453;52.198;5.004;2022-07-25T01:51:45;5.43;;;4.97;;
48667;SDS011;34453;52.198;5.004;2022-07-25T01:54:11;5.55;;;5.15;;
48667;SDS011;34453;52.198;5.004;2022-07-25T01:56:41;6.43;;;5.97;;
48667;SDS011;34453;52.198;5.004;2022-07-25T01:59:07;6.80;;;6.40;;
48667;SDS011;34453;52.198;5.004;2022-07-25T02:01:32;6.65;;;6.22;;
48667;SDS011;34453;52.198;5.004;2022-07-25T02:03:58;7.95;;;6.28;;
48667;SDS011;34453;52.198;5.004;2022-07-25T02:06:23;6.38;;;5.85;;
48667;SDS011;34453;52.198;5.004;2022-07-25T02:08:49;6.45;;;6.05;;
48667;SDS011;34453;52.198;5.004;2022-07-25T02:11:14;7.95;;;7.30;;
48667;SDS011;34453;52.198;5.004;2022-07-25T02:13:40;7.80;;;6.88;;
48667;SDS011;34453;52.198;5.004;2022-07-25T02:16:05;7.00;;;5.95;;
48667;SDS011;34453;52.198;5.004;2022-07-25T02:18:30;6.72;;;6.32;;
48667;SDS011;34453;52.198;5.004;2022-07-25T02:20:56;8.20;;;7.32;;
48667;SDS011;34453;52.198;5.004;2022-07-25T02:23:21;8.52;;;6.43;;
48667;SDS011;34453;52.198;5.004;2022-07-25T02:25:47;7.45;;;6.85;;
48667;SDS011;34453;52.198;5.004;2022-07-25T02:28:12;6.90;;;6.35;;
48667;SDS011;34453;52.198;5.004;2022-07-25T02:30:38;6.20;;;5.85;;
48667;SDS011;34453;52.198;5.004;2022-07-25T02:33:03;7.18;;;6.50;;
48667;SDS011;34453;52.198;5.004;2022-07-25T02:35:29;7.93;;;7.25;;
48667;SDS011;34453;52.198;5.004;2022-07-25T02:37:54;9.50;;;6.75;;
48667;SDS011;34453;52.198;5.004;2022-07-25T02:40:20;7.40;;;6.88;;
48667;SDS011;34453;52.198;5.004;2022-07-25T02:42:45;7.63;;;7.13;;
48667;SDS011;34453;52.198;5.004;2022-07-25T02:45:11;7.70;;;7.10;;
48667;SDS011;34453;52.198;5.004;2022-07-25T02:47:39;8.27;;;7.68;;
48667;SDS011;34453;52.198;5.004;2022-07-25T02:50:04;12.32;;;7.50;;
48667;SDS011;34453;52.198;5.004;2022-07-25T02:52:30;8.35;;;6.32;;
48667;SDS011;34453;52.198;5.004;2022-07-25T02:54:56;10.40;;;6.90;;
48667;SDS011;34453;52.198;5.004;2022-07-25T02:57:21;6.80;;;6.00;;
48667;SDS011;34453;52.198;5.004;2022-07-25T02:59:47;9.93;;;6.90;;
48667;SDS011;34453;52.198;5.004;2022-07-25T03:02:12;9.30;;;6.57;;
48667;SDS011;34453;52.198;5.004;2022-07-25T03:04:38;7.05;;;6.45;;
48667;SDS011;34453;52.198;5.004;2022-07-25T03:07:03;6.35;;;5.90;;
48667;SDS011;34453;52.198;5.004;2022-07-25T03:09:29;7.38;;;6.60;;
48667;SDS011;34453;52.198;5.004;2022-07-25T03:11:54;7.97;;;7.00;;
48667;SDS011;34453;52.198;5.004;2022-07-25T03:14:19;6.22;;;5.85;;
48667;SDS011;34453;52.198;5.004;2022-07-25T03:16:45;6.32;;;5.88;;
48667;SDS011;34453;52.198;5.004;2022-07-25T03:19:10;5.72;;;5.35;;
48667;SDS011;34453;52.198;5.004;2022-07-25T03:21:37;6.03;;;5.63;;
48667;SDS011;34453;52.198;5.004;2022-07-25T03:24:03;7.55;;;6.97;;
48667;SDS011;34453;52.198;5.004;2022-07-25T03:26:28;7.22;;;6.70;;
48667;SDS011;34453;52.198;5.004;2022-07-25T03:28:54;6.55;;;5.95;;
48667;SDS011;34453;52.198;5.004;2022-07-25T03:31:19;12.52;;;7.07;;
48667;SDS011;34453;52.198;5.004;2022-07-25T03:33:45;7.35;;;6.65;;
48667;SDS011;34453;52.198;5.004;2022-07-25T03:36:10;7.75;;;7.07;;
48667;SDS011;34453;52.198;5.004;2022-07-25T03:38:36;7.57;;;6.90;;
48667;SDS011;34453;52.198;5.004;2022-07-25T03:41:01;8.93;;;8.10;;
48667;SDS011;34453;52.198;5.004;2022-07-25T03:43:27;9.52;;;8.57;;
48667;SDS011;34453;52.198;5.004;2022-07-25T03:45:52;10.90;;;8.07;;
48667;SDS011;34453;52.198;5.004;2022-07-25T03:48:17;11.27;;;8.38;;
48667;SDS011;34453;52.198;5.004;2022-07-25T03:50:43;9.30;;;8.20;;
48667;SDS011;34453;52.198;5.004;2022-07-25T03:53:08;8.82;;;7.95;;
48667;SDS011;34453;52.198;5.004;2022-07-25T03:55:34;11.00;;;9.55;;
48667;SDS011;34453;52.198;5.004;2022-07-25T03:57:59;9.25;;;8.45;;
48667;SDS011;34453;52.198;5.004;2022-07-25T04:00:25;9.05;;;8.45;;
48667;SDS011;34453;52.198;5.004;2022-07-25T04:02:50;10.05;;;9.13;;
48667;SDS011;34453;52.198;5.004;2022-07-25T04:05:16;11.30;;;10.30;;
48667;SDS011;34453;52.198;5.004;2022-07-25T04:07:41;12.05;;;10.95;;
48667;SDS011;34453;52.198;5.004;2022-07-25T04:10:07;10.55;;;9.65;;
48667;SDS011;34453;52.198;5.004;2022-07-25T04:12:33;11.90;;;10.70;;
48667;SDS011;34453;52.198;5.004;2022-07-25T04:14:58;12.40;;;11.30;;
48667;SDS011;34453;52.198;5.004;2022-07-25T04:17:24;11.88;;;10.80;;
48667;SDS011;34453;52.198;5.004;2022-07-25T04:19:49;11.32;;;10.32;;
48667;SDS011;34453;52.198;5.004;2022-07-25T04:22:15;13.73;;;12.32;;
48667;SDS011;34453;52.198;5.004;2022-07-25T04:24:40;18.08;;;13.43;;
48667;SDS011;34453;52.198;5.004;2022-07-25T04:27:06;13.57;;;12.25;;
48667;SDS011;34453;52.198;5.004;2022-07-25T04:29:31;13.38;;;12.15;;
48667;SDS011;34453;52.198;5.004;2022-07-25T04:31:57;13.75;;;12.38;;
48667;SDS011;34453;52.198;5.004;2022-07-25T04:34:22;14.82;;;11.57;;
48667;SDS011;34453;52.198;5.004;2022-07-25T04:36:48;17.25;;;14.13;;
48667;SDS011;34453;52.198;5.004;2022-07-25T04:39:13;16.58;;;12.93;;
48667;SDS011;34453;52.198;5.004;2022-07-25T04:41:39;15.15;;;13.77;;
48667;SDS011;34453;52.198;5.004;2022-07-25T04:44:04;14.57;;;12.18;;
48667;SDS011;34453;52.198;5.004;2022-07-25T04:46:31;14.43;;;12.90;;
48667;SDS011;34453;52.198;5.004;2022-07-25T04:48:56;15.18;;;13.68;;
48667;SDS011;34453;52.198;5.004;2022-07-25T04:51:22;14.57;;;13.38;;
48667;SDS011;34453;52.198;5.004;2022-07-25T04:53:48;15.27;;;13.40;;
48667;SDS011;34453;52.198;5.004;2022-07-25T04:56:13;14.82;;;13.45;;
48667;SDS011;34453;52.198;5.004;2022-07-25T04:58:39;14.75;;;12.93;;
48667;SDS011;34453;52.198;5.004;2022-07-25T05:01:05;15.88;;;14.25;;
48667;SDS011;34453;52.198;5.004;2022-07-25T05:03:31;15.02;;;13.45;;
48667;SDS011;34453;52.198;5.004;2022-07-25T05:05:57;14.20;;;12.80;;
48667;SDS011;34453;52.198;5.004;2022-07-25T05:08:22;16.50;;;14.77;;
48667;SDS011;34453;52.198;5.004;2022-07-25T05:10:48;16.30;;;14.75;;
48667;SDS011;34453;52.198;5.004;2022-07-25T05:13:13;16.27;;;14.43;;
48667;SDS011;34453;52.198;5.004;2022-07-25T05:15:39;15.90;;;14.32;;
48667;SDS011;34453;52.198;5.004;2022-07-25T05:18:04;21.15;;;14.90;;
48667;SDS011;34453;52.198;5.004;2022-07-25T05:20:30;14.30;;;13.10;;
48667;SDS011;34453;52.198;5.004;2022-07-25T05:22:55;15.43;;;14.00;;
48667;SDS011;34453;52.198;5.004;2022-07-25T05:25:21;15.00;;;13.55;;
48667;SDS011;34453;52.198;5.004;2022-07-25T05:27:46;15.38;;;13.98;;
48667;SDS011;34453;52.198;5.004;2022-07-25T05:30:12;15.77;;;14.27;;
48667;SDS011;34453;52.198;5.004;2022-07-25T05:32:39;20.10;;;14.60;;
48667;SDS011;34453;52.198;5.004;2022-07-25T05:35:05;17.25;;;14.27;;
48667;SDS011;34453;52.198;5.004;2022-07-25T05:37:32;14.77;;;13.30;;
48667;SDS011;34453;52.198;5.004;2022-07-25T05:39:58;15.45;;;14.02;;
48667;SDS011;34453;52.198;5.004;2022-07-25T05:42:24;14.60;;;13.15;;
48667;SDS011;34453;52.198;5.004;2022-07-25T05:44:49;13.70;;;12.30;;
48667;SDS011;34453;52.198;5.004;2022-07-25T05:47:15;12.93;;;11.05;;
48667;SDS011;34453;52.198;5.004;2022-07-25T05:49:40;12.00;;;10.35;;
48667;SDS011;34453;52.198;5.004;2022-07-25T05:52:06;11.30;;;10.10;;
48667;SDS011;34453;52.198;5.004;2022-07-25T05:54:31;13.75;;;11.32;;
48667;SDS011;34453;52.198;5.004;2022-07-25T05:56:58;10.55;;;9.63;;
48667;SDS011;34453;52.198;5.004;2022-07-25T05:59:25;14.07;;;9.07;;
48667;SDS011;34453;52.198;5.004;2022-07-25T06:01:50;10.02;;;8.75;;
48667;SDS011;34453;52.198;5.004;2022-07-25T06:04:16;8.05;;;7.25;;
48667;SDS011;34453;52.198;5.004;2022-07-25T06:06:41;8.88;;;7.40;;
48667;SDS011;34453;52.198;5.004;2022-07-25T06:09:07;8.70;;;7.88;;
48667;SDS011;34453;52.198;5.004;2022-07-25T06:11:32;11.45;;;7.30;;
48667;SDS011;34453;52.198;5.004;2022-07-25T06:13:58;10.63;;;6.45;;
48667;SDS011;34453;52.198;5.004;2022-07-25T06:16:24;7.80;;;6.07;;
48667;SDS011;34453;52.198;5.004;2022-07-25T06:18:49;6.57;;;6.03;;
48667;SDS011;34453;52.198;5.004;2022-07-25T06:21:15;6.72;;;6.13;;
48667;SDS011;34453;52.198;5.004;2022-07-25T06:23:40;5.82;;;5.32;;
48667;SDS011;34453;52.198;5.004;2022-07-25T06:26:09;4.68;;;4.15;;
48667;SDS011;34453;52.198;5.004;2022-07-25T06:28:35;4.05;;;3.78;;
48667;SDS011;34453;52.198;5.004;2022-07-25T06:31:02;3.45;;;2.80;;
48667;SDS011;34453;52.198;5.004;2022-07-25T06:33:27;2.70;;;2.55;;
48667;SDS011;34453;52.198;5.004;2022-07-25T06:35:53;2.47;;;2.38;;
48667;SDS011;34453;52.198;5.004;2022-07-25T06:38:18;6.53;;;2.13;;
48667;SDS011;34453;52.198;5.004;2022-07-25T06:40:44;3.90;;;1.70;;
48667;SDS011;34453;52.198;5.004;2022-07-25T06:43:10;4.35;;;2.00;;
48667;SDS011;34453;52.198;5.004;2022-07-25T06:45:35;1.48;;;1.38;;
48667;SDS011;34453;52.198;5.004;2022-07-25T06:48:01;2.42;;;1.83;;
48667;SDS011;34453;52.198;5.004;2022-07-25T06:50:26;1.67;;;1.58;;
48667;SDS011;34453;52.198;5.004;2022-07-25T06:52:52;3.67;;;2.22;;
48667;SDS011;34453;52.198;5.004;2022-07-25T06:55:19;3.30;;;1.67;;
48667;SDS011;34453;52.198;5.004;2022-07-25T06:57:45;3.88;;;1.67;;
48667;SDS011;34453;52.198;5.004;2022-07-25T07:00:11;3.38;;;1.85;;
48667;SDS011;34453;52.198;5.004;2022-07-25T07:02:50;2.50;;;1.50;;
48667;SDS011;34453;52.198;5.004;2022-07-25T07:05:21;4.15;;;1.42;;
48667;SDS011;34453;52.198;5.004;2022-07-25T07:07:48;1.70;;;1.60;;
48667;SDS011;34453;52.198;5.004;2022-07-25T07:10:14;7.13;;;1.70;;
48667;SDS011;34453;52.198;5.004;2022-07-25T07:12:40;2.25;;;1.85;;
48667;SDS011;34453;52.198;5.004;2022-07-25T07:15:06;1.70;;;1.33;;
48667;SDS011;34453;52.198;5.004;2022-07-25T07:17:31;7.10;;;1.83;;
48667;SDS011;34453;52.198;5.004;2022-07-25T07:19:57;6.63;;;1.35;;
48667;SDS011;34453;52.198;5.004;2022-07-25T07:22:23;1.92;;;1.27;;
48667;SDS011;34453;52.198;5.004;2022-07-25T07:24:48;1.42;;;1.35;;
48667;SDS011;34453;52.198;5.004;2022-07-25T07:27:13;4.03;;;1.55;;
48667;SDS011;34453;52.198;5.004;2022-07-25T07:29:39;4.57;;;1.73;;
48667;SDS011;34453;52.198;5.004;2022-07-25T07:32:05;1.10;;;1.00;;
48667;SDS011;34453;52.198;5.004;2022-07-25T07:34:31;4.10;;;1.30;;
48667;SDS011;34453;52.198;5.004;2022-07-25T07:36:56;8.43;;;1.38;;
48667;SDS011;34453;52.198;5.004;2022-07-25T07:39:22;8.13;;;1.25;;
48667;SDS011;34453;52.198;5.004;2022-07-25T07:41:47;1.05;;;0.70;;
48667;SDS011;34453;52.198;5.004;2022-07-25T07:44:13;7.10;;;1.38;;
48667;SDS011;34453;52.198;5.004;2022-07-25T07:46:38;3.38;;;1.40;;
48667;SDS011;34453;52.198;5.004;2022-07-25T07:49:03;1.77;;;1.23;;
48667;SDS011;34453;52.198;5.004;2022-07-25T07:51:29;3.58;;;1.23;;
48667;SDS011;34453;52.198;5.004;2022-07-25T07:53:55;6.22;;;2.08;;
48667;SDS011;34453;52.198;5.004;2022-07-25T07:56:38;5.35;;;1.35;;
48667;SDS011;34453;52.198;5.004;2022-07-25T07:59:05;2.83;;;1.10;;
48667;SDS011;34453;52.198;5.004;2022-07-25T08:01:31;3.08;;;1.50;;
48667;SDS011;34453;52.198;5.004;2022-07-25T08:03:57;4.93;;;1.50;;
48667;SDS011;34453;52.198;5.004;2022-07-25T08:06:22;7.80;;;1.50;;
48667;SDS011;34453;52.198;5.004;2022-07-25T08:08:48;10.20;;;1.73;;
48667;SDS011;34453;52.198;5.004;2022-07-25T08:11:13;4.20;;;1.67;;
48667;SDS011;34453;52.198;5.004;2022-07-25T08:13:39;8.32;;;1.88;;
48667;SDS011;34453;52.198;5.004;2022-07-25T08:16:05;8.07;;;1.70;;
48667;SDS011;34453;52.198;5.004;2022-07-25T08:18:31;5.68;;;1.92;;
48667;SDS011;34453;52.198;5.004;2022-07-25T08:20:58;9.07;;;1.90;;
48667;SDS011;34453;52.198;5.004;2022-07-25T08:23:24;5.50;;;1.38;;
48667;SDS011;34453;52.198;5.004;2022-07-25T08:25:51;5.82;;;2.33;;
48667;SDS011;34453;52.198;5.004;2022-07-25T08:28:17;5.20;;;2.50;;
48667;SDS011;34453;52.198;5.004;2022-07-25T08:30:43;4.70;;;1.40;;
48667;SDS011;34453;52.198;5.004;2022-07-25T08:33:10;4.13;;;1.52;;
48667;SDS011;34453;52.198;5.004;2022-07-25T08:35:49;4.85;;;1.73;;
48667;SDS011;34453;52.198;5.004;2022-07-25T08:38:22;4.57;;;1.48;;
48667;SDS011;34453;52.198;5.004;2022-07-25T08:40:48;9.65;;;3.10;;
48667;SDS011;34453;52.198;5.004;2022-07-25T08:43:15;4.38;;;1.15;;
48667;SDS011;34453;52.198;5.004;2022-07-25T08:45:45;4.03;;;1.95;;
48667;SDS011;34453;52.198;5.004;2022-07-25T08:48:12;7.30;;;2.60;;
48667;SDS011;34453;52.198;5.004;2022-07-25T08:50:40;6.55;;;2.25;;
48667;SDS011;34453;52.198;5.004;2022-07-25T08:53:07;4.85;;;1.40;;
48667;SDS011;34453;52.198;5.004;2022-07-25T08:55:33;3.45;;;1.48;;
48667;SDS011;34453;52.198;5.004;2022-07-25T08:57:58;15.23;;;2.08;;
48667;SDS011;34453;52.198;5.004;2022-07-25T09:00:25;10.02;;;1.75;;
48667;SDS011;34453;52.198;5.004;2022-07-25T09:02:53;3.83;;;1.80;;
48667;SDS011;34453;52.198;5.004;2022-07-25T09:05:21;4.85;;;1.63;;
48667;SDS011;34453;52.198;5.004;2022-07-25T09:07:47;10.48;;;3.05;;
48667;SDS011;34453;52.198;5.004;2022-07-25T09:10:17;6.30;;;2.35;;
48667;SDS011;34453;52.198;5.004;2022-07-25T09:15:27;11.50;;;1.75;;
48667;SDS011;34453;52.198;5.004;2022-07-25T09:17:54;5.13;;;1.90;;
48667;SDS011;34453;52.198;5.004;2022-07-25T09:20:21;5.43;;;1.70;;
48667;SDS011;34453;52.198;5.004;2022-07-25T09:22:47;10.07;;;2.03;;
48667;SDS011;34453;52.198;5.004;2022-07-25T09:25:25;8.45;;;2.15;;
48667;SDS011;34453;52.198;5.004;2022-07-25T09:28:08;6.32;;;2.00;;
48667;SDS011;34453;52.198;5.004;2022-07-25T09:30:39;9.18;;;1.77;;
48667;SDS011;34453;52.198;5.004;2022-07-25T09:33:06;9.57;;;2.00;;
48667;SDS011;34453;52.198;5.004;2022-07-25T09:35:32;3.47;;;1.70;;
48667;SDS011;34453;52.198;5.004;2022-07-25T09:38:06;11.03;;;1.63;;
48667;SDS011;34453;52.198;5.004;2022-07-25T09:40:36;5.05;;;1.63;;
48667;SDS011;34453;52.198;5.004;2022-07-25T09:43:01;6.60;;;2.13;;
48667;SDS011;34453;52.198;5.004;2022-07-25T09:45:27;3.63;;;1.83;;
48667;SDS011;34453;52.198;5.004;2022-07-25T09:47:54;2.63;;;1.52;;
48667;SDS011;34453;52.198;5.004;2022-07-25T09:50:24;4.35;;;1.80;;
48667;SDS011;34453;52.198;5.004;2022-07-25T09:52:51;6.63;;;1.70;;
48667;SDS011;34453;52.198;5.004;2022-07-25T09:55:19;5.85;;;1.63;;
48667;SDS011;34453;52.198;5.004;2022-07-25T09:57:46;4.70;;;1.85;;
48667;SDS011;34453;52.198;5.004;2022-07-25T10:00:14;6.50;;;1.55;;
48667;SDS011;34453;52.198;5.004;2022-07-25T10:02:51;9.07;;;1.92;;
48667;SDS011;34453;52.198;5.004;2022-07-25T10:08:10;7.05;;;2.15;;
48667;SDS011;34453;52.198;5.004;2022-07-25T10:10:37;3.95;;;1.70;;
48667;SDS011;34453;52.198;5.004;2022-07-25T10:13:12;10.15;;;1.88;;
48667;SDS011;34453;52.198;5.004;2022-07-25T10:15:48;4.85;;;2.00;;
48667;SDS011;34453;52.198;5.004;2022-07-25T10:18:16;5.72;;;1.83;;
48667;SDS011;34453;52.198;5.004;2022-07-25T10:20:44;3.35;;;1.85;;
48667;SDS011;34453;52.198;5.004;2022-07-25T10:23:21;12.65;;;2.17;;
48667;SDS011;34453;52.198;5.004;2022-07-25T10:31:02;6.88;;;1.92;;
48667;SDS011;34453;52.198;5.004;2022-07-25T10:33:39;4.95;;;2.00;;
48667;SDS011;34453;52.198;5.004;2022-07-25T10:36:06;7.22;;;2.28;;
48667;SDS011;34453;52.198;5.004;2022-07-25T10:38:32;4.07;;;1.58;;
48667;SDS011;34453;52.198;5.004;2022-07-25T10:41:00;14.63;;;2.45;;
48667;SDS011;34453;52.198;5.004;2022-07-25T10:43:27;4.60;;;2.00;;
48667;SDS011;34453;52.198;5.004;2022-07-25T10:45:57;5.70;;;1.98;;
48667;SDS011;34453;52.198;5.004;2022-07-25T10:48:25;10.85;;;2.65;;
48667;SDS011;34453;52.198;5.004;2022-07-25T10:50:58;7.68;;;1.80;;
48667;SDS011;34453;52.198;5.004;2022-07-25T10:53:32;1.98;;;1.77;;
48667;SDS011;34453;52.198;5.004;2022-07-25T11:01:08;10.35;;;2.85;;
48667;SDS011;34453;52.198;5.004;2022-07-25T11:03:34;6.43;;;2.00;;
48667;SDS011;34453;52.198;5.004;2022-07-25T11:06:00;11.10;;;2.78;;
48667;SDS011;34453;52.198;5.004;2022-07-25T11:08:30;5.85;;;2.45;;
48667;SDS011;34453;52.198;5.004;2022-07-25T11:10:56;14.55;;;3.67;;
48667;SDS011;34453;52.198;5.004;2022-07-25T11:13:21;7.63;;;2.75;;
48667;SDS011;34453;52.198;5.004;2022-07-25T11:15:47;8.75;;;2.55;;
48667;SDS011;34453;52.198;5.004;2022-07-25T11:18:13;7.53;;;2.53;;
48667;SDS011;34453;52.198;5.004;2022-07-25T11:20:39;6.80;;;2.53;;
48667;SDS011;34453;52.198;5.004;2022-07-25T11:23:04;12.38;;;2.40;;
48667;SDS011;34453;52.198;5.004;2022-07-25T11:25:30;8.35;;;3.03;;
48667;SDS011;34453;52.198;5.004;2022-07-25T11:27:57;13.18;;;2.60;;
48667;SDS011;34453;52.198;5.004;2022-07-25T11:30:24;12.70;;;2.65;;
48667;SDS011;34453;52.198;5.004;2022-07-25T11:32:54;6.82;;;2.42;;
48667;SDS011;34453;52.198;5.004;2022-07-25T11:35:39;8.52;;;2.83;;
48667;SDS011;34453;52.198;5.004;2022-07-25T11:38:04;11.43;;;2.30;;
48667;SDS011;34453;52.198;5.004;2022-07-25T11:40:30;8.57;;;3.25;;
48667;SDS011;34453;52.198;5.004;2022-07-25T11:42:56;8.23;;;3.58;;
48667;SDS011;34453;52.198;5.004;2022-07-25T11:45:24;7.97;;;2.45;;
48667;SDS011;34453;52.198;5.004;2022-07-25T11:48:05;3.40;;;2.40;;
48667;SDS011;34453;52.198;5.004;2022-07-25T11:50:36;4.90;;;2.60;;
48667;SDS011;34453;52.198;5.004;2022-07-25T11:53:04;8.88;;;2.35;;
48667;SDS011;34453;52.198;5.004;2022-07-25T11:55:34;9.88;;;2.30;;
48667;SDS011;34453;52.198;5.004;2022-07-25T11:58:04;12.20;;;2.80;;
48667;SDS011;34453;52.198;5.004;2022-07-25T12:00:32;5.05;;;2.22;;
48667;SDS011;34453;52.198;5.004;2022-07-25T12:03:07;7.00;;;3.28;;
48667;SDS011;34453;52.198;5.004;2022-07-25T12:05:32;4.60;;;1.90;;
48667;SDS011;34453;52.198;5.004;2022-07-25T12:08:06;6.95;;;2.28;;
48667;SDS011;34453;52.198;5.004;2022-07-25T12:10:42;7.63;;;1.73;;
48667;SDS011;34453;52.198;5.004;2022-07-25T12:13:20;6.35;;;1.73;;
48667;SDS011;34453;52.198;5.004;2022-07-25T12:15:47;6.65;;;1.95;;
48667;SDS011;34453;52.198;5.004;2022-07-25T12:18:12;7.28;;;2.65;;
48667;SDS011;34453;52.198;5.004;2022-07-25T12:20:39;11.43;;;2.42;;
48667;SDS011;34453;52.198;5.004;2022-07-25T12:23:07;10.73;;;2.40;;
48667;SDS011;34453;52.198;5.004;2022-07-25T12:25:35;9.90;;;2.15;;
48667;SDS011;34453;52.198;5.004;2022-07-25T12:28:03;6.30;;;1.90;;
48667;SDS011;34453;52.198;5.004;2022-07-25T12:30:29;12.63;;;2.08;;
48667;SDS011;34453;52.198;5.004;2022-07-25T12:32:56;9.27;;;1.83;;
48667;SDS011;34453;52.198;5.004;2022-07-25T12:35:22;11.68;;;2.13;;
48667;SDS011;34453;52.198;5.004;2022-07-25T12:37:48;10.25;;;2.05;;
48667;SDS011;34453;52.198;5.004;2022-07-25T12:40:14;7.20;;;1.73;;
48667;SDS011;34453;52.198;5.004;2022-07-25T12:42:40;9.48;;;2.58;;
48667;SDS011;34453;52.198;5.004;2022-07-25T12:45:07;5.93;;;1.60;;
48667;SDS011;34453;52.198;5.004;2022-07-25T12:47:34;10.07;;;2.28;;
48667;SDS011;34453;52.198;5.004;2022-07-25T12:50:00;6.05;;;1.77;;
48667;SDS011;34453;52.198;5.004;2022-07-25T12:52:26;7.00;;;1.42;;
48667;SDS011;34453;52.198;5.004;2022-07-25T12:54:51;5.90;;;1.98;;
48667;SDS011;34453;52.198;5.004;2022-07-25T12:57:17;6.55;;;1.83;;
48667;SDS011;34453;52.198;5.004;2022-07-25T12:59:44;5.32;;;1.80;;
48667;SDS011;34453;52.198;5.004;2022-07-25T13:02:10;6.60;;;2.00;;
48667;SDS011;34453;52.198;5.004;2022-07-25T13:04:36;12.95;;;2.50;;
48667;SDS011;34453;52.198;5.004;2022-07-25T13:07:02;7.32;;;1.80;;
48667;SDS011;34453;52.198;5.004;2022-07-25T13:09:28;4.80;;;1.85;;
48667;SDS011;34453;52.198;5.004;2022-07-25T13:11:53;8.80;;;2.50;;
48667;SDS011;34453;52.198;5.004;2022-07-25T13:14:19;10.18;;;2.05;;
48667;SDS011;34453;52.198;5.004;2022-07-25T13:16:45;6.43;;;2.30;;
48667;SDS011;34453;52.198;5.004;2022-07-25T13:19:11;5.88;;;2.03;;
48667;SDS011;34453;52.198;5.004;2022-07-25T13:21:38;8.45;;;1.58;;
48667;SDS011;34453;52.198;5.004;2022-07-25T13:24:04;7.55;;;2.42;;
48667;SDS011;34453;52.198;5.004;2022-07-25T13:26:31;3.60;;;1.48;;
48667;SDS011;34453;52.198;5.004;2022-07-25T13:28:57;6.40;;;1.73;;
48667;SDS011;34453;52.198;5.004;2022-07-25T13:31:23;3.35;;;1.55;;
48667;SDS011;34453;52.198;5.004;2022-07-25T13:33:48;4.63;;;1.42;;
48667;SDS011;34453;52.198;5.004;2022-07-25T13:36:15;8.32;;;1.67;;
48667;SDS011;34453;52.198;5.004;2022-07-25T13:38:41;1.65;;;0.93;;
48667;SDS011;34453;52.198;5.004;2022-07-25T13:41:08;1.98;;;1.52;;
48667;SDS011;34453;52.198;5.004;2022-07-25T13:43:34;4.35;;;1.55;;
48667;SDS011;34453;52.198;5.004;2022-07-25T13:46:00;4.80;;;1.60;;
48667;SDS011;34453;52.198;5.004;2022-07-25T13:48:26;5.70;;;1.80;;
48667;SDS011;34453;52.198;5.004;2022-07-25T13:50:55;6.70;;;2.15;;
48667;SDS011;34453;52.198;5.004;2022-07-25T13:53:21;6.00;;;1.92;;
48667;SDS011;34453;52.198;5.004;2022-07-25T13:55:47;6.57;;;1.50;;
48667;SDS011;34453;52.198;5.004;2022-07-25T13:58:13;5.65;;;1.45;;
48667;SDS011;34453;52.198;5.004;2022-07-25T14:00:39;8.93;;;1.88;;
48667;SDS011;34453;52.198;5.004;2022-07-25T14:03:04;4.38;;;1.40;;
48667;SDS011;34453;52.198;5.004;2022-07-25T14:05:30;4.07;;;1.60;;
48667;SDS011;34453;52.198;5.004;2022-07-25T14:07:56;7.45;;;1.48;;
48667;SDS011;34453;52.198;5.004;2022-07-25T14:10:23;6.97;;;1.85;;
48667;SDS011;34453;52.198;5.004;2022-07-25T14:12:49;3.28;;;1.58;;
48667;SDS011;34453;52.198;5.004;2022-07-25T14:15:14;4.22;;;1.08;;
48667;SDS011;34453;52.198;5.004;2022-07-25T14:17:40;7.50;;;1.75;;
48667;SDS011;34453;52.198;5.004;2022-07-25T14:20:05;6.78;;;1.30;;
48667;SDS011;34453;52.198;5.004;2022-07-25T14:22:32;5.07;;;1.55;;
48667;SDS011;34453;52.198;5.004;2022-07-25T14:24:57;5.15;;;1.17;;
48667;SDS011;34453;52.198;5.004;2022-07-25T14:27:23;5.60;;;1.15;;
48667;SDS011;34453;52.198;5.004;2022-07-25T14:29:48;4.35;;;1.00;;
48667;SDS011;34453;52.198;5.004;2022-07-25T14:32:14;4.90;;;1.40;;
48667;SDS011;34453;52.198;5.004;2022-07-25T14:34:39;6.78;;;1.25;;
48667;SDS011;34453;52.198;5.004;2022-07-25T14:37:05;1.05;;;0.80;;
48667;SDS011;34453;52.198;5.004;2022-07-25T14:39:31;2.78;;;1.70;;
48667;SDS011;34453;52.198;5.004;2022-07-25T14:41:57;5.40;;;1.98;;
48667;SDS011;34453;52.198;5.004;2022-07-25T14:44:24;2.42;;;0.90;;
48667;SDS011;34453;52.198;5.004;2022-07-25T14:46:51;1.60;;;0.85;;
48667;SDS011;34453;52.198;5.004;2022-07-25T14:49:17;2.85;;;1.10;;
48667;SDS011;34453;52.198;5.004;2022-07-25T14:51:43;4.22;;;1.10;;
48667;SDS011;34453;52.198;5.004;2022-07-25T14:54:11;4.50;;;1.23;;
48667;SDS011;34453;52.198;5.004;2022-07-25T14:56:37;4.05;;;0.80;;